Oluja — V7QE8 — position and weather

sailwx.info

Track history (hours):
 
Tides and Currents Weather Stations Pressure Air Temp Water Temp Dewpoint Dewpoint Depression Visibility Wind Speed Wind Dir Waves Ship Positions

Oluja

Last reported at 2017-Feb-19 22:08 UTC. Time now 2017-Feb-23 20:40 UTC.
Position N 29°25' W 094°50'.

Length 188 m; draft 7.8 m.

Type: Cargo ship. MMSI: 538003345.

Date/timePositionNaut miles runAvg speedWind from/ knotsBaromVisibWave heightAir tempDewpointWater temp
2017-Feb-19 22:08N 29°25' W 094°50'611.2
2017-Feb-19 21:33N 29°31' W 094°53'1110.5
2017-Feb-19 20:33N 29°40' W 094°59'7 7.2
2017-Feb-19 19:34N 29°45' W 095°04'6 6.2
2017-Feb-19 18:33N 29°45' W 095°11'  
2017-Feb-14 10:05N 29°44' W 095°17'0 0.0
2017-Feb-13 01:33N 29°44' W 095°17'4 3.4
2017-Feb-13 00:19N 29°45' W 095°12'5 5.3
2017-Feb-12 23:27N 29°45' W 095°07'5 5.6
2017-Feb-12 22:33N 29°43' W 095°01'8 8.0
2017-Feb-12 21:33N 29°36' W 094°57'  
Track history (hours):
 
Tides and Currents Weather Stations Pressure Air Temp Water Temp Dewpoint Dewpoint Depression Visibility Wind Speed Wind Dir Waves Ship Positions

Oluja

Last reported at 2017-Feb-19 22:08 UTC. Time now 2017-Feb-23 20:40 UTC.
Position N 29°25' W 094°50'.

Length 188 m; draft 7.8 m.

Type: Cargo ship. MMSI: 538003345.

Date/timePositionNaut miles runAvg speedWind from/ knotsBaromVisibWave heightAir tempDewpointWater temp
2017-Feb-19 22:08N 29°25' W 094°50'611.2
2017-Feb-19 21:33N 29°31' W 094°53'1110.5
2017-Feb-19 20:33N 29°40' W 094°59'7 7.2
2017-Feb-19 19:34N 29°45' W 095°04'6 6.2
2017-Feb-19 18:33N 29°45' W 095°11'  
2017-Feb-14 10:05N 29°44' W 095°17'0 0.0
2017-Feb-13 01:33N 29°44' W 095°17'4 3.4
2017-Feb-13 00:19N 29°45' W 095°12'5 5.3
2017-Feb-12 23:27N 29°45' W 095°07'5 5.6
2017-Feb-12 22:33N 29°43' W 095°01'8 8.0
2017-Feb-12 21:33N 29°36' W 094°57'  

Dump ship's entire track history